sensor_id;sensor_type;location;lat;lon;timestamp;pressure;altitude;pressure_sealevel;temperature;humidity
11349;BME280;5729;43.570;27.826;2022-12-18T00:01:04;99802.50;;;10.47;100.00
11349;BME280;5729;43.570;27.826;2022-12-18T00:03:35;99820.78;;;10.53;100.00
11349;BME280;5729;43.570;27.826;2022-12-18T00:06:01;99832.13;;;10.35;100.00
11349;BME280;5729;43.570;27.826;2022-12-18T00:08:27;99847.06;;;10.44;100.00
11349;BME280;5729;43.570;27.826;2022-12-18T00:10:53;99850.66;;;10.36;100.00
11349;BME280;5729;43.570;27.826;2022-12-18T00:13:19;99848.97;;;10.32;100.00
11349;BME280;5729;43.570;27.826;2022-12-18T00:15:44;99857.94;;;10.24;100.00
11349;BME280;5729;43.570;27.826;2022-12-18T00:18:10;99852.19;;;10.13;100.00
11349;BME280;5729;43.570;27.826;2022-12-18T00:20:36;99856.78;;;10.12;100.00
11349;BME280;5729;43.570;27.826;2022-12-18T00:23:02;99848.91;;;10.07;100.00
11349;BME280;5729;43.570;27.826;2022-12-18T00:25:27;99860.13;;;10.09;100.00
11349;BME280;5729;43.570;27.826;2022-12-18T00:27:53;99854.72;;;9.97;100.00
11349;BME280;5729;43.570;27.826;2022-12-18T00:30:18;99862.03;;;10.09;100.00
11349;BME280;5729;43.570;27.826;2022-12-18T00:32:44;99864.59;;;10.05;100.00
11349;BME280;5729;43.570;27.826;2022-12-18T00:35:09;99859.09;;;10.02;100.00
11349;BME280;5729;43.570;27.826;2022-12-18T00:37:34;99856.75;;;10.00;100.00
11349;BME280;5729;43.570;27.826;2022-12-18T00:40:00;99849.44;;;10.01;100.00
11349;BME280;5729;43.570;27.826;2022-12-18T00:42:26;99841.81;;;9.91;100.00
11349;BME280;5729;43.570;27.826;2022-12-18T00:45:09;99851.63;;;9.74;100.00
11349;BME280;5729;43.570;27.826;2022-12-18T00:47:35;99850.41;;;9.84;100.00
11349;BME280;5729;43.570;27.826;2022-12-18T00:50:00;99862.19;;;9.79;100.00
11349;BME280;5729;43.570;27.826;2022-12-18T00:52:25;99849.50;;;9.80;100.00
11349;BME280;5729;43.570;27.826;2022-12-18T00:54:51;99857.59;;;9.80;100.00
11349;BME280;5729;43.570;27.826;2022-12-18T00:57:16;99864.09;;;9.79;100.00
11349;BME280;5729;43.570;27.826;2022-12-18T00:59:42;99857.78;;;9.75;100.00
11349;BME280;5729;43.570;27.826;2022-12-18T01:02:07;99859.50;;;9.79;100.00
11349;BME280;5729;43.570;27.826;2022-12-18T01:04:33;99853.06;;;9.72;100.00
11349;BME280;5729;43.570;27.826;2022-12-18T01:06:59;99852.22;;;9.80;100.00
11349;BME280;5729;43.570;27.826;2022-12-18T01:09:24;99826.50;;;9.70;100.00
11349;BME280;5729;43.570;27.826;2022-12-18T01:11:49;99862.88;;;9.89;100.00
11349;BME280;5729;43.570;27.826;2022-12-18T01:14:15;99869.38;;;9.88;100.00
11349;BME280;5729;43.570;27.826;2022-12-18T01:16:41;99872.13;;;9.67;100.00
11349;BME280;5729;43.570;27.826;2022-12-18T01:19:06;99890.00;;;9.83;100.00
11349;BME280;5729;43.570;27.826;2022-12-18T01:21:32;99897.56;;;9.90;100.00
11349;BME280;5729;43.570;27.826;2022-12-18T01:23:57;99869.72;;;9.86;100.00
11349;BME280;5729;43.570;27.826;2022-12-18T01:26:24;99888.13;;;9.96;100.00
11349;BME280;5729;43.570;27.826;2022-12-18T01:28:49;99878.13;;;9.84;100.00
11349;BME280;5729;43.570;27.826;2022-12-18T01:33:40;99875.94;;;9.66;100.00
11349;BME280;5729;43.570;27.826;2022-12-18T01:36:06;99879.88;;;9.68;100.00
11349;BME280;5729;43.570;27.826;2022-12-18T01:38:31;99882.03;;;9.54;100.00
11349;BME280;5729;43.570;27.826;2022-12-18T01:40:58;99872.31;;;9.62;100.00
11349;BME280;5729;43.570;27.826;2022-12-18T01:46:08;99871.00;;;9.68;100.00
11349;BME280;5729;43.570;27.826;2022-12-18T01:48:34;99878.28;;;9.67;100.00
11349;BME280;5729;43.570;27.826;2022-12-18T01:50:59;99877.69;;;9.62;100.00
11349;BME280;5729;43.570;27.826;2022-12-18T01:53:25;99887.75;;;9.53;100.00
11349;BME280;5729;43.570;27.826;2022-12-18T01:55:57;99893.78;;;9.50;100.00
11349;BME280;5729;43.570;27.826;2022-12-18T01:58:41;99904.75;;;9.44;100.00
11349;BME280;5729;43.570;27.826;2022-12-18T02:01:09;99894.94;;;9.61;100.00
11349;BME280;5729;43.570;27.826;2022-12-18T02:03:35;99896.06;;;9.60;100.00
11349;BME280;5729;43.570;27.826;2022-12-18T02:17:02;99902.09;;;9.77;100.00
11349;BME280;5729;43.570;27.826;2022-12-18T02:27:37;99909.28;;;9.53;100.00
11349;BME280;5729;43.570;27.826;2022-12-18T02:30:06;99914.13;;;9.38;100.00
11349;BME280;5729;43.570;27.826;2022-12-18T02:32:46;99914.91;;;9.18;100.00
11349;BME280;5729;43.570;27.826;2022-12-18T02:35:19;99913.84;;;9.10;100.00
11349;BME280;5729;43.570;27.826;2022-12-18T02:37:46;99902.81;;;9.03;100.00
11349;BME280;5729;43.570;27.826;2022-12-18T02:40:14;99903.84;;;8.90;100.00
11349;BME280;5729;43.570;27.826;2022-12-18T02:42:41;99916.78;;;8.97;100.00
11349;BME280;5729;43.570;27.826;2022-12-18T02:45:07;99922.00;;;8.93;100.00
11349;BME280;5729;43.570;27.826;2022-12-18T02:47:35;99899.25;;;8.91;100.00
11349;BME280;5729;43.570;27.826;2022-12-18T02:55:28;99942.28;;;8.91;100.00
11349;BME280;5729;43.570;27.826;2022-12-18T02:57:59;99942.19;;;8.70;100.00
11349;BME280;5729;43.570;27.826;2022-12-18T03:03:43;99968.91;;;8.75;100.00
11349;BME280;5729;43.570;27.826;2022-12-18T03:06:35;99979.03;;;8.69;100.00
11349;BME280;5729;43.570;27.826;2022-12-18T03:09:07;99985.19;;;8.70;100.00
11349;BME280;5729;43.570;27.826;2022-12-18T03:11:37;99991.53;;;8.65;100.00
11349;BME280;5729;43.570;27.826;2022-12-18T03:14:23;99993.28;;;8.61;100.00
11349;BME280;5729;43.570;27.826;2022-12-18T03:16:53;100025.38;;;8.66;100.00
11349;BME280;5729;43.570;27.826;2022-12-18T03:19:22;100017.19;;;8.54;100.00
11349;BME280;5729;43.570;27.826;2022-12-18T03:21:53;100021.91;;;8.57;100.00
11349;BME280;5729;43.570;27.826;2022-12-18T03:24:20;100017.50;;;8.35;100.00
11349;BME280;5729;43.570;27.826;2022-12-18T03:26:49;100030.59;;;8.54;100.00
11349;BME280;5729;43.570;27.826;2022-12-18T03:29:22;100033.94;;;8.51;100.00
11349;BME280;5729;43.570;27.826;2022-12-18T03:31:53;100036.78;;;8.46;100.00
11349;BME280;5729;43.570;27.826;2022-12-18T03:34:26;100039.94;;;8.40;100.00
11349;BME280;5729;43.570;27.826;2022-12-18T03:36:54;100047.38;;;8.43;100.00
11349;BME280;5729;43.570;27.826;2022-12-18T03:39:20;100057.81;;;8.44;100.00
11349;BME280;5729;43.570;27.826;2022-12-18T03:42:00;100072.50;;;8.38;100.00
11349;BME280;5729;43.570;27.826;2022-12-18T03:50:08;100103.00;;;8.33;100.00
11349;BME280;5729;43.570;27.826;2022-12-18T03:52:40;100090.69;;;8.32;100.00
11349;BME280;5729;43.570;27.826;2022-12-18T03:55:09;100105.03;;;8.36;100.00
11349;BME280;5729;43.570;27.826;2022-12-18T03:57:35;100093.66;;;8.31;100.00
11349;BME280;5729;43.570;27.826;2022-12-18T04:00:06;100094.09;;;8.07;100.00
11349;BME280;5729;43.570;27.826;2022-12-18T04:02:34;100086.38;;;7.97;100.00
11349;BME280;5729;43.570;27.826;2022-12-18T04:05:04;100091.13;;;8.00;100.00
11349;BME280;5729;43.570;27.826;2022-12-18T04:07:30;100065.97;;;7.87;100.00
11349;BME280;5729;43.570;27.826;2022-12-18T04:09:58;100085.88;;;7.86;100.00
11349;BME280;5729;43.570;27.826;2022-12-18T04:12:26;100077.03;;;7.77;100.00
11349;BME280;5729;43.570;27.826;2022-12-18T04:14:53;100085.19;;;7.55;100.00
11349;BME280;5729;43.570;27.826;2022-12-18T04:17:19;100100.81;;;7.61;100.00
11349;BME280;5729;43.570;27.826;2022-12-18T04:19:45;100103.94;;;7.55;100.00
11349;BME280;5729;43.570;27.826;2022-12-18T04:22:10;100093.66;;;7.48;100.00
11349;BME280;5729;43.570;27.826;2022-12-18T04:24:36;100106.16;;;7.53;100.00
11349;BME280;5729;43.570;27.826;2022-12-18T04:27:01;100109.41;;;7.33;100.00
11349;BME280;5729;43.570;27.826;2022-12-18T04:29:27;100126.00;;;7.43;100.00
11349;BME280;5729;43.570;27.826;2022-12-18T04:31:53;100130.50;;;7.34;100.00
11349;BME280;5729;43.570;27.826;2022-12-18T04:34:19;100113.28;;;7.26;100.00
11349;BME280;5729;43.570;27.826;2022-12-18T04:36:45;100134.03;;;7.43;100.00
11349;BME280;5729;43.570;27.826;2022-12-18T04:39:11;100134.66;;;7.40;100.00
11349;BME280;5729;43.570;27.826;2022-12-18T04:41:36;100143.19;;;7.42;100.00
11349;BME280;5729;43.570;27.826;2022-12-18T04:44:02;100163.41;;;7.48;100.00
11349;BME280;5729;43.570;27.826;2022-12-18T04:46:27;100161.59;;;7.35;100.00
11349;BME280;5729;43.570;27.826;2022-12-18T04:48:53;100178.94;;;7.29;100.00
11349;BME280;5729;43.570;27.826;2022-12-18T04:51:18;100175.00;;;7.35;100.00
11349;BME280;5729;43.570;27.826;2022-12-18T04:53:44;100187.97;;;7.11;100.00
11349;BME280;5729;43.570;27.826;2022-12-18T04:56:12;100194.28;;;7.15;100.00
11349;BME280;5729;43.570;27.826;2022-12-18T04:58:39;100186.66;;;7.00;100.00
11349;BME280;5729;43.570;27.826;2022-12-18T05:01:06;100192.38;;;6.84;100.00
11349;BME280;5729;43.570;27.826;2022-12-18T05:03:33;100189.38;;;6.86;100.00
11349;BME280;5729;43.570;27.826;2022-12-18T05:05:59;100168.28;;;6.71;100.00
11349;BME280;5729;43.570;27.826;2022-12-18T05:08:24;100179.16;;;6.66;100.00
11349;BME280;5729;43.570;27.826;2022-12-18T05:11:01;100194.00;;;6.72;100.00
11349;BME280;5729;43.570;27.826;2022-12-18T05:13:28;100185.59;;;6.65;100.00
11349;BME280;5729;43.570;27.826;2022-12-18T05:15:54;100195.63;;;6.59;100.00
11349;BME280;5729;43.570;27.826;2022-12-18T05:18:20;100204.19;;;6.47;100.00
11349;BME280;5729;43.570;27.826;2022-12-18T05:20:46;100214.38;;;6.59;100.00
11349;BME280;5729;43.570;27.826;2022-12-18T05:23:11;100215.34;;;6.63;100.00
11349;BME280;5729;43.570;27.826;2022-12-18T05:25:37;100200.88;;;6.64;100.00
11349;BME280;5729;43.570;27.826;2022-12-18T05:28:02;100211.22;;;6.43;100.00
11349;BME280;5729;43.570;27.826;2022-12-18T05:30:28;100208.44;;;6.48;100.00
11349;BME280;5729;43.570;27.826;2022-12-18T05:32:53;100218.59;;;6.38;100.00
11349;BME280;5729;43.570;27.826;2022-12-18T05:35:19;100210.06;;;6.36;100.00
11349;BME280;5729;43.570;27.826;2022-12-18T05:37:44;100210.75;;;6.28;100.00
11349;BME280;5729;43.570;27.826;2022-12-18T05:40:11;100232.06;;;6.33;100.00
11349;BME280;5729;43.570;27.826;2022-12-18T05:42:37;100231.19;;;6.24;100.00
11349;BME280;5729;43.570;27.826;2022-12-18T05:45:03;100239.84;;;6.07;100.00
11349;BME280;5729;43.570;27.826;2022-12-18T05:47:29;100247.25;;;6.10;100.00
11349;BME280;5729;43.570;27.826;2022-12-18T05:49:54;100244.97;;;6.17;100.00
11349;BME280;5729;43.570;27.826;2022-12-18T05:52:20;100229.63;;;6.09;100.00
11349;BME280;5729;43.570;27.826;2022-12-18T05:54:45;100253.91;;;6.26;100.00
11349;BME280;5729;43.570;27.826;2022-12-18T05:57:12;100247.75;;;6.12;100.00
11349;BME280;5729;43.570;27.826;2022-12-18T05:59:37;100275.53;;;6.16;100.00
11349;BME280;5729;43.570;27.826;2022-12-18T06:02:03;100275.53;;;6.16;100.00
11349;BME280;5729;43.570;27.826;2022-12-18T06:04:30;100287.53;;;6.18;100.00
11349;BME280;5729;43.570;27.826;2022-12-18T06:06:55;100303.47;;;6.10;100.00
11349;BME280;5729;43.570;27.826;2022-12-18T06:09:20;100291.00;;;6.19;100.00
11349;BME280;5729;43.570;27.826;2022-12-18T06:11:46;100303.66;;;6.13;100.00
11349;BME280;5729;43.570;27.826;2022-12-18T06:14:11;100303.06;;;6.03;100.00
11349;BME280;5729;43.570;27.826;2022-12-18T06:16:37;100316.25;;;6.13;100.00
11349;BME280;5729;43.570;27.826;2022-12-18T06:19:04;100330.13;;;6.01;100.00
11349;BME280;5729;43.570;27.826;2022-12-18T06:21:30;100333.47;;;5.93;100.00
11349;BME280;5729;43.570;27.826;2022-12-18T06:23:56;100342.19;;;5.99;100.00
11349;BME280;5729;43.570;27.826;2022-12-18T06:26:23;100357.84;;;5.92;100.00
11349;BME280;5729;43.570;27.826;2022-12-18T06:28:49;100346.06;;;5.93;100.00
11349;BME280;5729;43.570;27.826;2022-12-18T06:31:14;100360.13;;;5.98;100.00
11349;BME280;5729;43.570;27.826;2022-12-18T06:33:40;100351.00;;;5.86;100.00
11349;BME280;5729;43.570;27.826;2022-12-18T06:36:11;100360.94;;;5.99;100.00
11349;BME280;5729;43.570;27.826;2022-12-18T06:38:39;100361.25;;;5.97;100.00
11349;BME280;5729;43.570;27.826;2022-12-18T06:41:10;100361.25;;;6.11;100.00
11349;BME280;5729;43.570;27.826;2022-12-18T06:43:35;100369.22;;;6.16;100.00
11349;BME280;5729;43.570;27.826;2022-12-18T06:46:02;100367.81;;;6.05;100.00
11349;BME280;5729;43.570;27.826;2022-12-18T06:48:29;100374.63;;;6.11;100.00
11349;BME280;5729;43.570;27.826;2022-12-18T06:50:54;100363.75;;;6.07;100.00
11349;BME280;5729;43.570;27.826;2022-12-18T06:53:20;100366.75;;;6.19;100.00
11349;BME280;5729;43.570;27.826;2022-12-18T06:55:45;100374.66;;;6.25;100.00
11349;BME280;5729;43.570;27.826;2022-12-18T06:58:10;100370.09;;;6.25;100.00
11349;BME280;5729;43.570;27.826;2022-12-18T07:00:36;100377.84;;;6.27;100.00
11349;BME280;5729;43.570;27.826;2022-12-18T07:03:02;100377.28;;;6.30;100.00
11349;BME280;5729;43.570;27.826;2022-12-18T07:05:27;100379.81;;;6.21;100.00
11349;BME280;5729;43.570;27.826;2022-12-18T07:07:52;100382.19;;;6.23;100.00
11349;BME280;5729;43.570;27.826;2022-12-18T07:10:18;100391.75;;;6.29;100.00
11349;BME280;5729;43.570;27.826;2022-12-18T07:12:43;100403.44;;;6.33;100.00
11349;BME280;5729;43.570;27.826;2022-12-18T07:15:09;100406.63;;;6.35;100.00
11349;BME280;5729;43.570;27.826;2022-12-18T07:17:34;100402.03;;;6.22;100.00
11349;BME280;5729;43.570;27.826;2022-12-18T07:20:00;100410.63;;;6.05;100.00
11349;BME280;5729;43.570;27.826;2022-12-18T07:22:26;100433.34;;;6.07;100.00
11349;BME280;5729;43.570;27.826;2022-12-18T07:24:51;100426.78;;;6.13;100.00
11349;BME280;5729;43.570;27.826;2022-12-18T07:27:17;100448.94;;;6.19;100.00
11349;BME280;5729;43.570;27.826;2022-12-18T07:29:42;100444.16;;;6.16;100.00
11349;BME280;5729;43.570;27.826;2022-12-18T07:32:08;100459.53;;;6.24;100.00
11349;BME280;5729;43.570;27.826;2022-12-18T07:34:33;100455.19;;;6.28;100.00
11349;BME280;5729;43.570;27.826;2022-12-18T07:36:59;100467.56;;;6.24;100.00
11349;BME280;5729;43.570;27.826;2022-12-18T07:39:24;100469.38;;;6.29;100.00
11349;BME280;5729;43.570;27.826;2022-12-18T07:41:50;100480.84;;;6.15;100.00
11349;BME280;5729;43.570;27.826;2022-12-18T07:44:34;100469.69;;;6.27;100.00
11349;BME280;5729;43.570;27.826;2022-12-18T07:46:59;100483.97;;;6.36;100.00
11349;BME280;5729;43.570;27.826;2022-12-18T07:49:25;100489.44;;;6.45;100.00
11349;BME280;5729;43.570;27.826;2022-12-18T07:51:50;100494.91;;;6.40;100.00
11349;BME280;5729;43.570;27.826;2022-12-18T07:54:15;100490.75;;;6.47;100.00
11349;BME280;5729;43.570;27.826;2022-12-18T07:56:41;100490.16;;;6.50;100.00
11349;BME280;5729;43.570;27.826;2022-12-18T07:59:06;100503.66;;;6.59;100.00
11349;BME280;5729;43.570;27.826;2022-12-18T08:01:33;100497.69;;;6.48;100.00
11349;BME280;5729;43.570;27.826;2022-12-18T08:03:58;100511.50;;;6.55;100.00
11349;BME280;5729;43.570;27.826;2022-12-18T08:06:24;100522.94;;;6.61;100.00
11349;BME280;5729;43.570;27.826;2022-12-18T08:08:53;100515.56;;;6.53;100.00
11349;BME280;5729;43.570;27.826;2022-12-18T08:11:19;100502.50;;;6.65;100.00
11349;BME280;5729;43.570;27.826;2022-12-18T08:13:45;100507.56;;;6.34;100.00
11349;BME280;5729;43.570;27.826;2022-12-18T08:16:10;100505.66;;;6.53;100.00
11349;BME280;5729;43.570;27.826;2022-12-18T08:18:36;100506.94;;;6.56;100.00
11349;BME280;5729;43.570;27.826;2022-12-18T08:21:17;100515.19;;;6.60;100.00
11349;BME280;5729;43.570;27.826;2022-12-18T08:23:43;100531.28;;;6.73;100.00
11349;BME280;5729;43.570;27.826;2022-12-18T08:26:10;100525.44;;;6.71;100.00
11349;BME280;5729;43.570;27.826;2022-12-18T08:28:35;100522.69;;;6.76;100.00
11349;BME280;5729;43.570;27.826;2022-12-18T08:31:01;100522.06;;;6.79;100.00
11349;BME280;5729;43.570;27.826;2022-12-18T08:33:26;100526.53;;;6.84;100.00
11349;BME280;5729;43.570;27.826;2022-12-18T08:35:52;100530.19;;;6.74;100.00
11349;BME280;5729;43.570;27.826;2022-12-18T08:38:18;100530.34;;;6.97;100.00
11349;BME280;5729;43.570;27.826;2022-12-18T08:40:43;100526.16;;;6.90;100.00
11349;BME280;5729;43.570;27.826;2022-12-18T08:43:10;100517.03;;;7.05;100.00
11349;BME280;5729;43.570;27.826;2022-12-18T08:45:54;100525.56;;;6.93;100.00
11349;BME280;5729;43.570;27.826;2022-12-18T08:48:20;100524.13;;;6.69;100.00
11349;BME280;5729;43.570;27.826;2022-12-18T08:50:55;100525.75;;;6.83;100.00
11349;BME280;5729;43.570;27.826;2022-12-18T08:53:21;100527.16;;;6.95;100.00
11349;BME280;5729;43.570;27.826;2022-12-18T08:55:49;100528.34;;;7.02;100.00
11349;BME280;5729;43.570;27.826;2022-12-18T08:58:15;100507.00;;;7.11;100.00
11349;BME280;5729;43.570;27.826;2022-12-18T09:00:41;100513.94;;;7.25;100.00
11349;BME280;5729;43.570;27.826;2022-12-18T09:03:14;100515.75;;;7.30;100.00
11349;BME280;5729;43.570;27.826;2022-12-18T09:05:40;100516.41;;;7.36;100.00
11349;BME280;5729;43.570;27.826;2022-12-18T09:08:06;100518.00;;;7.23;100.00
11349;BME280;5729;43.570;27.826;2022-12-18T09:10:32;100513.94;;;7.25;100.00
11349;BME280;5729;43.570;27.826;2022-12-18T09:12:57;100515.03;;;7.38;100.00
11349;BME280;5729;43.570;27.826;2022-12-18T09:15:23;100520.50;;;7.19;100.00
11349;BME280;5729;43.570;27.826;2022-12-18T09:17:48;100528.75;;;7.37;100.00
11349;BME280;5729;43.570;27.826;2022-12-18T09:20:15;100508.06;;;7.37;100.00
11349;BME280;5729;43.570;27.826;2022-12-18T09:22:41;100512.75;;;7.32;100.00
11349;BME280;5729;43.570;27.826;2022-12-18T09:25:06;100527.53;;;7.02;100.00
11349;BME280;5729;43.570;27.826;2022-12-18T09:27:35;100529.16;;;7.16;100.00
11349;BME280;5729;43.570;27.826;2022-12-18T09:30:00;100499.34;;;7.04;100.00
11349;BME280;5729;43.570;27.826;2022-12-18T09:32:26;100522.38;;;7.05;100.00
11349;BME280;5729;43.570;27.826;2022-12-18T09:34:51;100523.38;;;7.23;100.00
11349;BME280;5729;43.570;27.826;2022-12-18T09:37:17;100524.47;;;7.36;100.00
11349;BME280;5729;43.570;27.826;2022-12-18T09:39:43;100527.94;;;7.36;100.00
11349;BME280;5729;43.570;27.826;2022-12-18T09:42:19;100514.44;;;7.14;100.00
11349;BME280;5729;43.570;27.826;2022-12-18T09:44:49;100535.03;;;7.32;100.00
11349;BME280;5729;43.570;27.826;2022-12-18T09:47:30;100531.53;;;7.32;100.00
11349;BME280;5729;43.570;27.826;2022-12-18T09:50:01;100541.13;;;6.91;100.00
11349;BME280;5729;43.570;27.826;2022-12-18T09:52:37;100530.31;;;7.24;100.00
11349;BME280;5729;43.570;27.826;2022-12-18T09:57:46;100537.50;;;7.28;100.00
11349;BME280;5729;43.570;27.826;2022-12-18T10:00:21;100546.63;;;7.41;100.00
11349;BME280;5729;43.570;27.826;2022-12-18T10:02:48;100544.81;;;7.23;100.00
11349;BME280;5729;43.570;27.826;2022-12-18T10:05:17;100546.03;;;7.31;100.00
11349;BME280;5729;43.570;27.826;2022-12-18T10:07:58;100544.53;;;7.52;100.00
11349;BME280;5729;43.570;27.826;2022-12-18T10:10:38;100540.47;;;7.54;100.00
11349;BME280;5729;43.570;27.826;2022-12-18T10:13:34;100551.88;;;7.60;100.00
11349;BME280;5729;43.570;27.826;2022-12-18T10:16:17;100553.88;;;7.54;100.00
11349;BME280;5729;43.570;27.826;2022-12-18T10:21:39;100554.16;;;7.53;100.00
11349;BME280;5729;43.570;27.826;2022-12-18T10:24:27;100546.63;;;7.55;100.00
11349;BME280;5729;43.570;27.826;2022-12-18T10:26:56;100546.22;;;7.61;100.00
11349;BME280;5729;43.570;27.826;2022-12-18T10:29:25;100547.00;;;7.62;100.00
11349;BME280;5729;43.570;27.826;2022-12-18T10:31:51;100540.34;;;7.59;100.00
11349;BME280;5729;43.570;27.826;2022-12-18T10:34:16;100548.91;;;7.48;100.00
11349;BME280;5729;43.570;27.826;2022-12-18T10:36:42;100543.16;;;7.41;100.00
11349;BME280;5729;43.570;27.826;2022-12-18T10:39:25;100547.72;;;7.54;100.00
11349;BME280;5729;43.570;27.826;2022-12-18T10:41:51;100545.22;;;7.57;100.00
11349;BME280;5729;43.570;27.826;2022-12-18T10:44:22;100546.50;;;7.60;100.00
11349;BME280;5729;43.570;27.826;2022-12-18T10:46:49;100545.09;;;7.76;100.00
11349;BME280;5729;43.570;27.826;2022-12-18T10:49:23;100558.16;;;7.55;100.00
11349;BME280;5729;43.570;27.826;2022-12-18T10:51:51;100553.16;;;7.76;100.00
11349;BME280;5729;43.570;27.826;2022-12-18T10:54:29;100549.78;;;7.57;100.00
11349;BME280;5729;43.570;27.826;2022-12-18T10:57:14;100550.78;;;7.47;100.00
11349;BME280;5729;43.570;27.826;2022-12-18T11:00:03;100545.63;;;7.37;100.00
11349;BME280;5729;43.570;27.826;2022-12-18T11:02:43;100550.09;;;7.42;100.00
11349;BME280;5729;43.570;27.826;2022-12-18T11:05:30;100561.63;;;7.56;100.00
11349;BME280;5729;43.570;27.826;2022-12-18T11:07:57;100561.84;;;7.32;100.00
11349;BME280;5729;43.570;27.826;2022-12-18T11:10:35;100556.25;;;7.56;100.00
11349;BME280;5729;43.570;27.826;2022-12-18T11:13:11;100565.38;;;7.69;100.00
11349;BME280;5729;43.570;27.826;2022-12-18T11:15:40;100566.06;;;7.74;100.00
11349;BME280;5729;43.570;27.826;2022-12-18T11:18:26;100557.44;;;7.63;100.00
11349;BME280;5729;43.570;27.826;2022-12-18T11:21:11;100559.41;;;7.58;100.00
11349;BME280;5729;43.570;27.826;2022-12-18T11:23:54;100572.75;;;7.63;100.00
11349;BME280;5729;43.570;27.826;2022-12-18T11:26:20;100551.50;;;7.25;100.00
11349;BME280;5729;43.570;27.826;2022-12-18T11:28:50;100561.13;;;7.54;100.00
11349;BME280;5729;43.570;27.826;2022-12-18T11:31:27;100569.56;;;7.61;100.00
11349;BME280;5729;43.570;27.826;2022-12-18T11:34:04;100571.75;;;7.59;100.00
11349;BME280;5729;43.570;27.826;2022-12-18T11:36:39;100584.56;;;7.76;100.00
11349;BME280;5729;43.570;27.826;2022-12-18T11:39:22;100581.16;;;7.84;100.00
11349;BME280;5729;43.570;27.826;2022-12-18T11:42:51;100584.31;;;7.99;100.00
11349;BME280;5729;43.570;27.826;2022-12-18T11:45:01;100587.09;;;7.94;100.00
11349;BME280;5729;43.570;27.826;2022-12-18T11:47:38;100593.78;;;7.83;100.00
11349;BME280;5729;43.570;27.826;2022-12-18T11:50:13;100583.53;;;7.99;100.00
11349;BME280;5729;43.570;27.826;2022-12-18T11:52:41;100594.69;;;8.15;100.00
11349;BME280;5729;43.570;27.826;2022-12-18T11:55:15;100589.78;;;8.30;100.00
11349;BME280;5729;43.570;27.826;2022-12-18T11:57:52;100588.25;;;8.16;100.00
11349;BME280;5729;43.570;27.826;2022-12-18T12:00:22;100591.84;;;8.11;100.00
11349;BME280;5729;43.570;27.826;2022-12-18T12:13:43;100606.13;;;7.84;100.00
11349;BME280;5729;43.570;27.826;2022-12-18T12:16:23;100600.31;;;7.91;100.00
11349;BME280;5729;43.570;27.826;2022-12-18T12:21:56;100611.09;;;7.77;100.00
11349;BME280;5729;43.570;27.826;2022-12-18T12:24:48;100605.44;;;7.79;100.00
11349;BME280;5729;43.570;27.826;2022-12-18T12:32:57;100603.34;;;7.89;100.00
11349;BME280;5729;43.570;27.826;2022-12-18T12:35:47;100609.16;;;7.91;100.00
11349;BME280;5729;43.570;27.826;2022-12-18T12:38:44;100605.44;;;7.79;100.00
11349;BME280;5729;43.570;27.826;2022-12-18T12:41:14;100582.19;;;7.60;100.00
11349;BME280;5729;43.570;27.826;2022-12-18T12:44:04;100614.28;;;7.65;100.00
11349;BME280;5729;43.570;27.826;2022-12-18T12:46:37;100609.31;;;7.73;100.00
11349;BME280;5729;43.570;27.826;2022-12-18T12:49:18;100620.75;;;7.78;100.00
11349;BME280;5729;43.570;27.826;2022-12-18T12:52:10;100633.47;;;7.73;100.00
11349;BME280;5729;43.570;27.826;2022-12-18T12:54:38;100649.44;;;7.91;100.00
11349;BME280;5729;43.570;27.826;2022-12-18T12:57:18;100640.41;;;7.87;100.00
11349;BME280;5729;43.570;27.826;2022-12-18T13:03:31;100621.53;;;7.65;100.00
11349;BME280;5729;43.570;27.826;2022-12-18T13:05:41;100644.00;;;7.69;100.00
11349;BME280;5729;43.570;27.826;2022-12-18T13:08:11;100641.81;;;7.71;100.00
11349;BME280;5729;43.570;27.826;2022-12-18T13:10:39;100647.59;;;7.64;100.00
11349;BME280;5729;43.570;27.826;2022-12-18T13:13:11;100654.34;;;7.62;100.00
11349;BME280;5729;43.570;27.826;2022-12-18T13:16:04;100654.44;;;7.43;100.00
11349;BME280;5729;43.570;27.826;2022-12-18T13:18:30;100659.09;;;7.51;100.00
11349;BME280;5729;43.570;27.826;2022-12-18T13:23:26;100654.81;;;7.50;100.00
11349;BME280;5729;43.570;27.826;2022-12-18T13:31:10;100677.97;;;7.60;100.00
11349;BME280;5729;43.570;27.826;2022-12-18T13:33:45;100674.91;;;7.53;100.00
11349;BME280;5729;43.570;27.826;2022-12-18T13:36:13;100688.59;;;7.38;100.00
11349;BME280;5729;43.570;27.826;2022-12-18T13:38:39;100690.25;;;7.34;100.00
11349;BME280;5729;43.570;27.826;2022-12-18T13:43:45;100689.78;;;7.45;100.00
11349;BME280;5729;43.570;27.826;2022-12-18T13:46:30;100689.69;;;7.50;100.00
11349;BME280;5729;43.570;27.826;2022-12-18T13:49:20;100693.19;;;7.51;100.00
11349;BME280;5729;43.570;27.826;2022-12-18T13:51:49;100687.53;;;7.52;100.00
11349;BME280;5729;43.570;27.826;2022-12-18T13:54:39;100695.91;;;7.18;100.00
11349;BME280;5729;43.570;27.826;2022-12-18T13:57:22;100683.88;;;7.16;100.00
11349;BME280;5729;43.570;27.826;2022-12-18T13:59:50;100710.41;;;7.17;100.00
11349;BME280;5729;43.570;27.826;2022-12-18T14:02:27;100704.28;;;7.31;100.00
11349;BME280;5729;43.570;27.826;2022-12-18T14:04:54;100707.03;;;7.25;100.00
11349;BME280;5729;43.570;27.826;2022-12-18T14:07:24;100710.78;;;7.11;100.00
11349;BME280;5729;43.570;27.826;2022-12-18T14:09:52;100719.59;;;7.11;100.00
11349;BME280;5729;43.570;27.826;2022-12-18T14:12:24;100722.88;;;7.08;100.00
11349;BME280;5729;43.570;27.826;2022-12-18T14:15:44;100732.81;;;7.08;100.00
11349;BME280;5729;43.570;27.826;2022-12-18T14:18:29;100737.44;;;7.02;100.00
11349;BME280;5729;43.570;27.826;2022-12-18T14:20:59;100743.69;;;6.98;100.00
11349;BME280;5729;43.570;27.826;2022-12-18T14:23:31;100738.38;;;7.11;100.00